sensor_id;sensor_type;location;lat;lon;timestamp;P1;durP1;ratioP1;P2;durP2;ratioP2
14484;SDS011;7328;50.812;4.422;2022-11-20T00:01:12;42.27;;;27.60;;
14484;SDS011;7328;50.812;4.422;2022-11-20T00:03:39;44.77;;;27.37;;
14484;SDS011;7328;50.812;4.422;2022-11-20T00:06:06;43.07;;;25.93;;
14484;SDS011;7328;50.812;4.422;2022-11-20T00:08:34;40.90;;;26.97;;
14484;SDS011;7328;50.812;4.422;2022-11-20T00:11:04;44.97;;;26.67;;
14484;SDS011;7328;50.812;4.422;2022-11-20T00:13:34;39.53;;;27.93;;
14484;SDS011;7328;50.812;4.422;2022-11-20T00:16:00;43.63;;;27.30;;
14484;SDS011;7328;50.812;4.422;2022-11-20T00:18:28;43.37;;;26.80;;
14484;SDS011;7328;50.812;4.422;2022-11-20T00:20:59;44.87;;;27.70;;
14484;SDS011;7328;50.812;4.422;2022-11-20T00:23:33;45.53;;;27.07;;
14484;SDS011;7328;50.812;4.422;2022-11-20T00:26:05;48.40;;;28.83;;
14484;SDS011;7328;50.812;4.422;2022-11-20T00:28:32;45.27;;;28.93;;
14484;SDS011;7328;50.812;4.422;2022-11-20T00:31:02;39.17;;;27.90;;
14484;SDS011;7328;50.812;4.422;2022-11-20T00:33:30;43.60;;;27.13;;
14484;SDS011;7328;50.812;4.422;2022-11-20T00:36:06;41.47;;;27.97;;
14484;SDS011;7328;50.812;4.422;2022-11-20T00:38:34;45.00;;;28.40;;
14484;SDS011;7328;50.812;4.422;2022-11-20T00:41:02;45.80;;;26.70;;
14484;SDS011;7328;50.812;4.422;2022-11-20T00:43:29;47.10;;;26.60;;
14484;SDS011;7328;50.812;4.422;2022-11-20T00:45:58;47.40;;;25.90;;
14484;SDS011;7328;50.812;4.422;2022-11-20T00:48:30;41.20;;;24.43;;
14484;SDS011;7328;50.812;4.422;2022-11-20T00:50:56;41.97;;;26.80;;
14484;SDS011;7328;50.812;4.422;2022-11-20T00:53:22;43.33;;;25.53;;
14484;SDS011;7328;50.812;4.422;2022-11-20T00:55:56;44.63;;;28.23;;
14484;SDS011;7328;50.812;4.422;2022-11-20T00:58:28;41.53;;;26.43;;
14484;SDS011;7328;50.812;4.422;2022-11-20T01:01:08;42.47;;;26.10;;
14484;SDS011;7328;50.812;4.422;2022-11-20T01:03:37;45.17;;;27.80;;
14484;SDS011;7328;50.812;4.422;2022-11-20T01:06:06;43.33;;;27.60;;
14484;SDS011;7328;50.812;4.422;2022-11-20T01:08:34;38.17;;;24.80;;
14484;SDS011;7328;50.812;4.422;2022-11-20T01:11:02;37.47;;;25.13;;
14484;SDS011;7328;50.812;4.422;2022-11-20T01:13:33;42.20;;;26.20;;
14484;SDS011;7328;50.812;4.422;2022-11-20T01:16:13;39.10;;;27.33;;
14484;SDS011;7328;50.812;4.422;2022-11-20T01:18:48;37.80;;;24.20;;
14484;SDS011;7328;50.812;4.422;2022-11-20T01:21:16;40.43;;;24.40;;
14484;SDS011;7328;50.812;4.422;2022-11-20T01:23:47;41.67;;;27.27;;
14484;SDS011;7328;50.812;4.422;2022-11-20T01:26:16;44.80;;;26.50;;
14484;SDS011;7328;50.812;4.422;2022-11-20T01:28:44;40.37;;;25.67;;
14484;SDS011;7328;50.812;4.422;2022-11-20T01:31:14;39.40;;;25.60;;
14484;SDS011;7328;50.812;4.422;2022-11-20T01:34:12;37.60;;;24.50;;
14484;SDS011;7328;50.812;4.422;2022-11-20T01:36:39;37.57;;;22.80;;
14484;SDS011;7328;50.812;4.422;2022-11-20T01:39:07;43.67;;;27.10;;
14484;SDS011;7328;50.812;4.422;2022-11-20T01:41:36;40.03;;;25.17;;
14484;SDS011;7328;50.812;4.422;2022-11-20T01:44:22;40.23;;;26.90;;
14484;SDS011;7328;50.812;4.422;2022-11-20T01:47:11;39.27;;;23.63;;
14484;SDS011;7328;50.812;4.422;2022-11-20T01:49:44;40.90;;;26.30;;
14484;SDS011;7328;50.812;4.422;2022-11-20T01:52:16;41.20;;;25.57;;
14484;SDS011;7328;50.812;4.422;2022-11-20T01:54:48;41.67;;;27.20;;
14484;SDS011;7328;50.812;4.422;2022-11-20T01:57:36;40.53;;;25.07;;
14484;SDS011;7328;50.812;4.422;2022-11-20T02:00:09;41.17;;;25.67;;
14484;SDS011;7328;50.812;4.422;2022-11-20T02:02:37;45.00;;;27.13;;
14484;SDS011;7328;50.812;4.422;2022-11-20T02:07:57;36.20;;;23.80;;
14484;SDS011;7328;50.812;4.422;2022-11-20T02:10:25;46.30;;;28.23;;
14484;SDS011;7328;50.812;4.422;2022-11-20T02:12:52;49.83;;;26.47;;
14484;SDS011;7328;50.812;4.422;2022-11-20T02:15:37;43.70;;;25.20;;
14484;SDS011;7328;50.812;4.422;2022-11-20T02:18:02;42.83;;;27.63;;
14484;SDS011;7328;50.812;4.422;2022-11-20T02:20:30;42.77;;;26.60;;
14484;SDS011;7328;50.812;4.422;2022-11-20T02:23:02;44.33;;;26.93;;
14484;SDS011;7328;50.812;4.422;2022-11-20T02:25:35;45.63;;;26.50;;
14484;SDS011;7328;50.812;4.422;2022-11-20T02:28:02;48.13;;;26.20;;
14484;SDS011;7328;50.812;4.422;2022-11-20T02:30:29;44.77;;;25.57;;
14484;SDS011;7328;50.812;4.422;2022-11-20T02:32:55;45.57;;;28.90;;
14484;SDS011;7328;50.812;4.422;2022-11-20T02:37:48;58.90;;;27.33;;
14484;SDS011;7328;50.812;4.422;2022-11-20T02:40:17;46.70;;;28.13;;
14484;SDS011;7328;50.812;4.422;2022-11-20T02:42:43;43.40;;;25.57;;
14484;SDS011;7328;50.812;4.422;2022-11-20T02:45:09;46.20;;;23.97;;
14484;SDS011;7328;50.812;4.422;2022-11-20T02:47:35;50.57;;;27.30;;
14484;SDS011;7328;50.812;4.422;2022-11-20T02:50:01;42.87;;;27.77;;
14484;SDS011;7328;50.812;4.422;2022-11-20T02:52:27;45.90;;;26.50;;
14484;SDS011;7328;50.812;4.422;2022-11-20T02:54:53;42.93;;;25.17;;
14484;SDS011;7328;50.812;4.422;2022-11-20T02:57:19;45.40;;;24.40;;
14484;SDS011;7328;50.812;4.422;2022-11-20T02:59:45;39.23;;;25.90;;
14484;SDS011;7328;50.812;4.422;2022-11-20T03:02:10;45.57;;;25.87;;
14484;SDS011;7328;50.812;4.422;2022-11-20T03:04:36;43.23;;;25.73;;
14484;SDS011;7328;50.812;4.422;2022-11-20T03:07:02;39.67;;;25.10;;
14484;SDS011;7328;50.812;4.422;2022-11-20T03:09:28;45.83;;;23.93;;
14484;SDS011;7328;50.812;4.422;2022-11-20T03:11:54;41.27;;;22.27;;
14484;SDS011;7328;50.812;4.422;2022-11-20T03:14:20;38.70;;;23.70;;
14484;SDS011;7328;50.812;4.422;2022-11-20T03:16:46;39.13;;;21.33;;
14484;SDS011;7328;50.812;4.422;2022-11-20T03:19:12;38.60;;;22.80;;
14484;SDS011;7328;50.812;4.422;2022-11-20T03:21:38;36.97;;;23.00;;
14484;SDS011;7328;50.812;4.422;2022-11-20T03:24:03;34.33;;;20.70;;
14484;SDS011;7328;50.812;4.422;2022-11-20T03:26:29;42.17;;;23.00;;
14484;SDS011;7328;50.812;4.422;2022-11-20T03:28:57;37.00;;;23.67;;
14484;SDS011;7328;50.812;4.422;2022-11-20T03:31:24;31.73;;;20.27;;
14484;SDS011;7328;50.812;4.422;2022-11-20T03:33:52;36.33;;;20.63;;
14484;SDS011;7328;50.812;4.422;2022-11-20T03:36:19;31.13;;;18.27;;
14484;SDS011;7328;50.812;4.422;2022-11-20T03:38:45;30.27;;;18.30;;
14484;SDS011;7328;50.812;4.422;2022-11-20T03:41:19;37.07;;;19.33;;
14484;SDS011;7328;50.812;4.422;2022-11-20T03:43:49;37.50;;;19.80;;
14484;SDS011;7328;50.812;4.422;2022-11-20T03:46:15;34.30;;;18.97;;
14484;SDS011;7328;50.812;4.422;2022-11-20T03:48:41;36.60;;;20.93;;
14484;SDS011;7328;50.812;4.422;2022-11-20T03:51:13;37.87;;;23.43;;
14484;SDS011;7328;50.812;4.422;2022-11-20T03:53:40;33.90;;;20.97;;
14484;SDS011;7328;50.812;4.422;2022-11-20T03:56:08;35.50;;;20.63;;
14484;SDS011;7328;50.812;4.422;2022-11-20T03:58:36;40.93;;;20.60;;
14484;SDS011;7328;50.812;4.422;2022-11-20T04:01:09;37.90;;;21.47;;
14484;SDS011;7328;50.812;4.422;2022-11-20T04:03:40;33.93;;;20.33;;
14484;SDS011;7328;50.812;4.422;2022-11-20T04:06:08;33.40;;;20.27;;
14484;SDS011;7328;50.812;4.422;2022-11-20T04:08:45;40.77;;;24.07;;
14484;SDS011;7328;50.812;4.422;2022-11-20T04:11:12;46.20;;;24.10;;
14484;SDS011;7328;50.812;4.422;2022-11-20T04:13:41;48.70;;;23.20;;
14484;SDS011;7328;50.812;4.422;2022-11-20T04:16:10;40.10;;;20.97;;
14484;SDS011;7328;50.812;4.422;2022-11-20T04:18:36;44.23;;;22.50;;
14484;SDS011;7328;50.812;4.422;2022-11-20T04:21:02;34.97;;;20.43;;
14484;SDS011;7328;50.812;4.422;2022-11-20T04:23:29;38.63;;;23.23;;
14484;SDS011;7328;50.812;4.422;2022-11-20T04:25:54;39.20;;;23.20;;
14484;SDS011;7328;50.812;4.422;2022-11-20T04:28:26;44.80;;;25.70;;
14484;SDS011;7328;50.812;4.422;2022-11-20T04:30:51;38.17;;;22.67;;
14484;SDS011;7328;50.812;4.422;2022-11-20T04:33:17;36.33;;;24.77;;
14484;SDS011;7328;50.812;4.422;2022-11-20T04:35:42;41.37;;;22.83;;
14484;SDS011;7328;50.812;4.422;2022-11-20T04:38:10;38.93;;;22.83;;
14484;SDS011;7328;50.812;4.422;2022-11-20T04:40:36;46.00;;;22.50;;
14484;SDS011;7328;50.812;4.422;2022-11-20T04:43:01;42.03;;;23.97;;
14484;SDS011;7328;50.812;4.422;2022-11-20T04:45:27;50.63;;;24.23;;
14484;SDS011;7328;50.812;4.422;2022-11-20T04:47:53;45.93;;;23.00;;
14484;SDS011;7328;50.812;4.422;2022-11-20T04:50:19;46.90;;;24.30;;
14484;SDS011;7328;50.812;4.422;2022-11-20T04:52:44;46.70;;;26.70;;
14484;SDS011;7328;50.812;4.422;2022-11-20T04:55:10;50.37;;;24.80;;
14484;SDS011;7328;50.812;4.422;2022-11-20T04:57:36;49.33;;;34.13;;
14484;SDS011;7328;50.812;4.422;2022-11-20T05:00:02;45.20;;;26.97;;
14484;SDS011;7328;50.812;4.422;2022-11-20T05:02:30;39.80;;;24.30;;
14484;SDS011;7328;50.812;4.422;2022-11-20T05:04:56;54.97;;;34.33;;
14484;SDS011;7328;50.812;4.422;2022-11-20T05:07:22;51.73;;;32.17;;
14484;SDS011;7328;50.812;4.422;2022-11-20T05:09:47;53.00;;;30.13;;
14484;SDS011;7328;50.812;4.422;2022-11-20T05:12:13;52.00;;;27.13;;
14484;SDS011;7328;50.812;4.422;2022-11-20T05:14:39;64.43;;;28.00;;
14484;SDS011;7328;50.812;4.422;2022-11-20T05:17:04;52.87;;;28.40;;
14484;SDS011;7328;50.812;4.422;2022-11-20T05:19:30;62.07;;;26.50;;
14484;SDS011;7328;50.812;4.422;2022-11-20T05:21:56;49.70;;;23.07;;
14484;SDS011;7328;50.812;4.422;2022-11-20T05:24:22;55.13;;;28.03;;
14484;SDS011;7328;50.812;4.422;2022-11-20T05:26:48;55.00;;;24.80;;
14484;SDS011;7328;50.812;4.422;2022-11-20T05:29:13;50.53;;;28.23;;
14484;SDS011;7328;50.812;4.422;2022-11-20T05:31:40;50.47;;;25.80;;
14484;SDS011;7328;50.812;4.422;2022-11-20T05:34:06;51.00;;;26.73;;
14484;SDS011;7328;50.812;4.422;2022-11-20T05:36:33;52.00;;;26.90;;
14484;SDS011;7328;50.812;4.422;2022-11-20T05:38:59;49.37;;;25.97;;
14484;SDS011;7328;50.812;4.422;2022-11-20T05:41:25;48.00;;;26.97;;
14484;SDS011;7328;50.812;4.422;2022-11-20T05:43:51;63.87;;;36.73;;
14484;SDS011;7328;50.812;4.422;2022-11-20T05:46:20;67.33;;;38.40;;
14484;SDS011;7328;50.812;4.422;2022-11-20T05:48:46;58.43;;;32.23;;
14484;SDS011;7328;50.812;4.422;2022-11-20T05:51:13;66.53;;;32.27;;
14484;SDS011;7328;50.812;4.422;2022-11-20T05:53:41;50.50;;;26.23;;
14484;SDS011;7328;50.812;4.422;2022-11-20T05:56:07;60.83;;;33.77;;
14484;SDS011;7328;50.812;4.422;2022-11-20T05:58:35;63.13;;;38.73;;
14484;SDS011;7328;50.812;4.422;2022-11-20T06:01:05;64.23;;;32.57;;
14484;SDS011;7328;50.812;4.422;2022-11-20T06:03:37;53.90;;;27.77;;
14484;SDS011;7328;50.812;4.422;2022-11-20T06:06:04;62.20;;;31.17;;
14484;SDS011;7328;50.812;4.422;2022-11-20T06:08:31;71.47;;;31.63;;
14484;SDS011;7328;50.812;4.422;2022-11-20T06:10:57;57.83;;;31.60;;
14484;SDS011;7328;50.812;4.422;2022-11-20T06:13:23;69.37;;;39.90;;
14484;SDS011;7328;50.812;4.422;2022-11-20T06:15:50;64.33;;;32.60;;
14484;SDS011;7328;50.812;4.422;2022-11-20T06:18:16;65.47;;;29.97;;
14484;SDS011;7328;50.812;4.422;2022-11-20T06:20:42;61.20;;;33.37;;
14484;SDS011;7328;50.812;4.422;2022-11-20T06:23:08;119.83;;;65.17;;
14484;SDS011;7328;50.812;4.422;2022-11-20T06:25:36;108.10;;;51.90;;
14484;SDS011;7328;50.812;4.422;2022-11-20T06:28:06;173.50;;;71.40;;
14484;SDS011;7328;50.812;4.422;2022-11-20T06:30:32;330.83;;;132.33;;
14484;SDS011;7328;50.812;4.422;2022-11-20T06:32:58;234.07;;;93.23;;
14484;SDS011;7328;50.812;4.422;2022-11-20T06:35:24;254.20;;;102.10;;
14484;SDS011;7328;50.812;4.422;2022-11-20T06:37:49;127.60;;;53.73;;
14484;SDS011;7328;50.812;4.422;2022-11-20T06:40:15;125.17;;;52.23;;
14484;SDS011;7328;50.812;4.422;2022-11-20T06:42:41;88.50;;;49.40;;
14484;SDS011;7328;50.812;4.422;2022-11-20T06:45:07;75.57;;;40.20;;
14484;SDS011;7328;50.812;4.422;2022-11-20T06:47:33;71.03;;;39.20;;
14484;SDS011;7328;50.812;4.422;2022-11-20T06:49:59;86.17;;;50.87;;
14484;SDS011;7328;50.812;4.422;2022-11-20T06:52:24;82.47;;;48.13;;
14484;SDS011;7328;50.812;4.422;2022-11-20T06:54:50;70.90;;;36.23;;
14484;SDS011;7328;50.812;4.422;2022-11-20T06:57:16;107.07;;;59.87;;
14484;SDS011;7328;50.812;4.422;2022-11-20T06:59:41;109.93;;;56.50;;
14484;SDS011;7328;50.812;4.422;2022-11-20T07:02:11;75.17;;;40.10;;
14484;SDS011;7328;50.812;4.422;2022-11-20T07:04:37;90.20;;;45.40;;
14484;SDS011;7328;50.812;4.422;2022-11-20T07:07:03;68.30;;;33.60;;
14484;SDS011;7328;50.812;4.422;2022-11-20T07:09:31;89.27;;;41.67;;
14484;SDS011;7328;50.812;4.422;2022-11-20T07:11:57;61.80;;;30.83;;
14484;SDS011;7328;50.812;4.422;2022-11-20T07:14:23;78.27;;;35.83;;
14484;SDS011;7328;50.812;4.422;2022-11-20T07:16:49;73.50;;;36.50;;
14484;SDS011;7328;50.812;4.422;2022-11-20T07:19:14;64.03;;;32.30;;
14484;SDS011;7328;50.812;4.422;2022-11-20T07:21:40;66.33;;;31.93;;
14484;SDS011;7328;50.812;4.422;2022-11-20T07:24:06;69.13;;;31.97;;
14484;SDS011;7328;50.812;4.422;2022-11-20T07:26:32;57.17;;;31.30;;
14484;SDS011;7328;50.812;4.422;2022-11-20T07:28:57;66.17;;;31.33;;
14484;SDS011;7328;50.812;4.422;2022-11-20T07:31:23;62.40;;;30.13;;
14484;SDS011;7328;50.812;4.422;2022-11-20T07:33:49;62.13;;;28.43;;
14484;SDS011;7328;50.812;4.422;2022-11-20T07:36:15;54.70;;;28.03;;
14484;SDS011;7328;50.812;4.422;2022-11-20T07:38:40;64.63;;;29.27;;
14484;SDS011;7328;50.812;4.422;2022-11-20T07:41:06;66.03;;;30.13;;
14484;SDS011;7328;50.812;4.422;2022-11-20T07:43:32;53.00;;;29.10;;
14484;SDS011;7328;50.812;4.422;2022-11-20T07:45:58;57.27;;;30.07;;
14484;SDS011;7328;50.812;4.422;2022-11-20T07:48:24;65.83;;;29.47;;
14484;SDS011;7328;50.812;4.422;2022-11-20T07:50:54;58.47;;;29.80;;
14484;SDS011;7328;50.812;4.422;2022-11-20T07:53:20;59.93;;;28.80;;
14484;SDS011;7328;50.812;4.422;2022-11-20T07:55:46;62.43;;;30.00;;
14484;SDS011;7328;50.812;4.422;2022-11-20T07:58:12;59.93;;;27.73;;
14484;SDS011;7328;50.812;4.422;2022-11-20T08:00:39;56.67;;;29.77;;
14484;SDS011;7328;50.812;4.422;2022-11-20T08:03:06;59.90;;;29.60;;
14484;SDS011;7328;50.812;4.422;2022-11-20T08:05:32;62.70;;;28.00;;
14484;SDS011;7328;50.812;4.422;2022-11-20T08:07:58;56.50;;;28.83;;
14484;SDS011;7328;50.812;4.422;2022-11-20T08:10:24;55.93;;;27.50;;
14484;SDS011;7328;50.812;4.422;2022-11-20T08:12:50;64.27;;;28.93;;
14484;SDS011;7328;50.812;4.422;2022-11-20T08:15:36;57.67;;;27.67;;
14484;SDS011;7328;50.812;4.422;2022-11-20T08:18:04;53.77;;;26.40;;
14484;SDS011;7328;50.812;4.422;2022-11-20T08:20:36;57.13;;;25.50;;
14484;SDS011;7328;50.812;4.422;2022-11-20T08:23:04;54.40;;;26.97;;
14484;SDS011;7328;50.812;4.422;2022-11-20T08:25:31;51.67;;;25.90;;
14484;SDS011;7328;50.812;4.422;2022-11-20T08:27:58;72.33;;;43.67;;
14484;SDS011;7328;50.812;4.422;2022-11-20T08:30:25;66.83;;;39.00;;
14484;SDS011;7328;50.812;4.422;2022-11-20T08:32:52;64.17;;;32.17;;
14484;SDS011;7328;50.812;4.422;2022-11-20T08:35:18;51.90;;;28.83;;
14484;SDS011;7328;50.812;4.422;2022-11-20T08:37:46;54.73;;;25.70;;
14484;SDS011;7328;50.812;4.422;2022-11-20T08:40:13;57.50;;;30.47;;
14484;SDS011;7328;50.812;4.422;2022-11-20T08:42:45;55.77;;;30.40;;
14484;SDS011;7328;50.812;4.422;2022-11-20T08:45:12;61.10;;;34.27;;
14484;SDS011;7328;50.812;4.422;2022-11-20T08:47:38;63.33;;;44.27;;
14484;SDS011;7328;50.812;4.422;2022-11-20T08:50:04;69.60;;;43.87;;
14484;SDS011;7328;50.812;4.422;2022-11-20T08:52:30;59.30;;;31.43;;
14484;SDS011;7328;50.812;4.422;2022-11-20T08:54:55;57.93;;;32.40;;
14484;SDS011;7328;50.812;4.422;2022-11-20T08:57:21;54.53;;;30.90;;
14484;SDS011;7328;50.812;4.422;2022-11-20T08:59:47;53.50;;;27.50;;
14484;SDS011;7328;50.812;4.422;2022-11-20T09:02:13;52.77;;;26.97;;
14484;SDS011;7328;50.812;4.422;2022-11-20T09:04:38;62.03;;;36.87;;
14484;SDS011;7328;50.812;4.422;2022-11-20T09:07:04;54.53;;;29.17;;
14484;SDS011;7328;50.812;4.422;2022-11-20T09:09:30;54.17;;;32.03;;
14484;SDS011;7328;50.812;4.422;2022-11-20T09:11:55;59.60;;;34.50;;
14484;SDS011;7328;50.812;4.422;2022-11-20T09:14:21;68.00;;;36.43;;
14484;SDS011;7328;50.812;4.422;2022-11-20T09:16:49;56.70;;;33.30;;
14484;SDS011;7328;50.812;4.422;2022-11-20T09:19:15;51.23;;;23.77;;
14484;SDS011;7328;50.812;4.422;2022-11-20T09:21:41;54.00;;;35.47;;
14484;SDS011;7328;50.812;4.422;2022-11-20T09:24:06;46.73;;;30.00;;
14484;SDS011;7328;50.812;4.422;2022-11-20T09:26:32;48.80;;;32.73;;
14484;SDS011;7328;50.812;4.422;2022-11-20T09:28:58;51.20;;;31.13;;
14484;SDS011;7328;50.812;4.422;2022-11-20T09:31:24;48.30;;;29.87;;
14484;SDS011;7328;50.812;4.422;2022-11-20T09:33:51;55.20;;;32.73;;
14484;SDS011;7328;50.812;4.422;2022-11-20T09:36:17;39.67;;;27.13;;
14484;SDS011;7328;50.812;4.422;2022-11-20T09:38:44;44.63;;;23.90;;
14484;SDS011;7328;50.812;4.422;2022-11-20T09:41:19;35.63;;;21.60;;
14484;SDS011;7328;50.812;4.422;2022-11-20T09:46:58;34.00;;;20.50;;
14484;SDS011;7328;50.812;4.422;2022-11-20T09:50:07;28.20;;;18.83;;
14484;SDS011;7328;50.812;4.422;2022-11-20T09:55:12;24.23;;;17.90;;
14484;SDS011;7328;50.812;4.422;2022-11-20T09:57:40;34.23;;;22.90;;
14484;SDS011;7328;50.812;4.422;2022-11-20T10:00:11;39.27;;;26.07;;
14484;SDS011;7328;50.812;4.422;2022-11-20T10:05:30;25.40;;;15.57;;
14484;SDS011;7328;50.812;4.422;2022-11-20T10:08:15;20.77;;;14.43;;
14484;SDS011;7328;50.812;4.422;2022-11-20T10:10:43;22.13;;;14.23;;
14484;SDS011;7328;50.812;4.422;2022-11-20T10:22:03;31.53;;;14.10;;
14484;SDS011;7328;50.812;4.422;2022-11-20T10:27:43;18.10;;;9.83;;
14484;SDS011;7328;50.812;4.422;2022-11-20T10:30:18;12.87;;;9.50;;
14484;SDS011;7328;50.812;4.422;2022-11-20T10:32:47;12.33;;;8.77;;
14484;SDS011;7328;50.812;4.422;2022-11-20T10:35:20;10.43;;;8.20;;
14484;SDS011;7328;50.812;4.422;2022-11-20T10:37:55;11.23;;;7.07;;
14484;SDS011;7328;50.812;4.422;2022-11-20T10:40:30;8.27;;;6.40;;
14484;SDS011;7328;50.812;4.422;2022-11-20T10:43:09;9.73;;;6.13;;
14484;SDS011;7328;50.812;4.422;2022-11-20T10:48:33;8.23;;;6.00;;
14484;SDS011;7328;50.812;4.422;2022-11-20T10:54:17;7.27;;;4.43;;
14484;SDS011;7328;50.812;4.422;2022-11-20T10:56:52;6.70;;;3.97;;
14484;SDS011;7328;50.812;4.422;2022-11-20T11:02:18;12.07;;;4.40;;
14484;SDS011;7328;50.812;4.422;2022-11-20T11:04:48;19.27;;;4.50;;
14484;SDS011;7328;50.812;4.422;2022-11-20T11:07:17;4.43;;;3.97;;
14484;SDS011;7328;50.812;4.422;2022-11-20T11:09:52;4.50;;;3.47;;
14484;SDS011;7328;50.812;4.422;2022-11-20T11:12:20;9.53;;;4.40;;
14484;SDS011;7328;50.812;4.422;2022-11-20T11:14:48;6.27;;;2.70;;
14484;SDS011;7328;50.812;4.422;2022-11-20T11:17:26;7.73;;;4.57;;
14484;SDS011;7328;50.812;4.422;2022-11-20T11:22:32;8.53;;;3.10;;
14484;SDS011;7328;50.812;4.422;2022-11-20T11:25:07;8.00;;;3.03;;
14484;SDS011;7328;50.812;4.422;2022-11-20T11:27:47;6.40;;;3.60;;
14484;SDS011;7328;50.812;4.422;2022-11-20T11:30:15;10.43;;;8.33;;
14484;SDS011;7328;50.812;4.422;2022-11-20T11:32:42;5.73;;;2.80;;
14484;SDS011;7328;50.812;4.422;2022-11-20T11:35:26;6.73;;;4.63;;
14484;SDS011;7328;50.812;4.422;2022-11-20T11:38:16;5.70;;;3.63;;
14484;SDS011;7328;50.812;4.422;2022-11-20T11:40:42;6.67;;;3.20;;
14484;SDS011;7328;50.812;4.422;2022-11-20T11:43:16;7.50;;;3.10;;
14484;SDS011;7328;50.812;4.422;2022-11-20T11:46:03;7.50;;;3.07;;
14484;SDS011;7328;50.812;4.422;2022-11-20T11:49:08;7.57;;;3.70;;
14484;SDS011;7328;50.812;4.422;2022-11-20T11:55:03;5.40;;;4.33;;
14484;SDS011;7328;50.812;4.422;2022-11-20T11:57:51;8.77;;;4.23;;
14484;SDS011;7328;50.812;4.422;2022-11-20T12:00:11;6.07;;;4.33;;
14484;SDS011;7328;50.812;4.422;2022-11-20T12:16:07;11.33;;;4.07;;
14484;SDS011;7328;50.812;4.422;2022-11-20T12:18:38;11.10;;;5.47;;
14484;SDS011;7328;50.812;4.422;2022-11-20T12:25:57;9.10;;;4.10;;
14484;SDS011;7328;50.812;4.422;2022-11-20T12:28:41;8.33;;;4.93;;
14484;SDS011;7328;50.812;4.422;2022-11-20T12:57:13;3.97;;;3.17;;
14484;SDS011;7328;50.812;4.422;2022-11-20T13:00:09;4.63;;;2.87;;
14484;SDS011;7328;50.812;4.422;2022-11-20T13:08:05;15.00;;;13.20;;
14484;SDS011;7328;50.812;4.422;2022-11-20T13:10:49;6.03;;;5.53;;
14484;SDS011;7328;50.812;4.422;2022-11-20T13:16:33;9.50;;;5.30;;
14484;SDS011;7328;50.812;4.422;2022-11-20T13:19:11;5.33;;;4.93;;
14484;SDS011;7328;50.812;4.422;2022-11-20T13:21:45;3.97;;;3.63;;
14484;SDS011;7328;50.812;4.422;2022-11-20T13:29:40;7.43;;;4.60;;
14484;SDS011;7328;50.812;4.422;2022-11-20T13:32:18;7.60;;;4.37;;
14484;SDS011;7328;50.812;4.422;2022-11-20T13:34:52;6.03;;;3.83;;
14484;SDS011;7328;50.812;4.422;2022-11-20T13:37:36;6.30;;;4.67;;
14484;SDS011;7328;50.812;4.422;2022-11-20T13:45:26;4.33;;;3.27;;
14484;SDS011;7328;50.812;4.422;2022-11-20T13:47:54;5.13;;;3.50;;
14484;SDS011;7328;50.812;4.422;2022-11-20T13:50:37;4.03;;;3.33;;
14484;SDS011;7328;50.812;4.422;2022-11-20T13:53:57;4.20;;;3.87;;
14484;SDS011;7328;50.812;4.422;2022-11-20T13:56:24;4.73;;;3.97;;
14484;SDS011;7328;50.812;4.422;2022-11-20T13:59:38;3.37;;;2.63;;
14484;SDS011;7328;50.812;4.422;2022-11-20T14:01:58;5.77;;;3.43;;
14484;SDS011;7328;50.812;4.422;2022-11-20T14:04:29;2.57;;;2.37;;
14484;SDS011;7328;50.812;4.422;2022-11-20T14:06:58;2.60;;;2.40;;
14484;SDS011;7328;50.812;4.422;2022-11-20T14:09:30;5.20;;;2.70;;
14484;SDS011;7328;50.812;4.422;2022-11-20T14:11:57;4.07;;;3.67;;
14484;SDS011;7328;50.812;4.422;2022-11-20T14:14:27;4.07;;;3.23;;
14484;SDS011;7328;50.812;4.422;2022-11-20T14:17:07;2.73;;;2.53;;
14484;SDS011;7328;50.812;4.422;2022-11-20T14:19:34;2.10;;;2.00;;
14484;SDS011;7328;50.812;4.422;2022-11-20T14:25:17;2.97;;;2.77;;
14484;SDS011;7328;50.812;4.422;2022-11-20T14:27:55;3.90;;;2.90;;
14484;SDS011;7328;50.812;4.422;2022-11-20T14:30:43;2.70;;;2.17;;
14484;SDS011;7328;50.812;4.422;2022-11-20T14:33:11;4.03;;;3.63;;
14484;SDS011;7328;50.812;4.422;2022-11-20T14:35:45;4.00;;;3.00;;
14484;SDS011;7328;50.812;4.422;2022-11-20T14:38:17;3.27;;;2.90;;
14484;SDS011;7328;50.812;4.422;2022-11-20T14:40:46;3.50;;;3.20;;
14484;SDS011;7328;50.812;4.422;2022-11-20T14:43:30;6.30;;;2.53;;
14484;SDS011;7328;50.812;4.422;2022-11-20T14:46:02;4.23;;;3.73;;
14484;SDS011;7328;50.812;4.422;2022-11-20T14:48:31;4.97;;;3.50;;
14484;SDS011;7328;50.812;4.422;2022-11-20T14:51:00;4.40;;;2.67;;
14484;SDS011;7328;50.812;4.422;2022-11-20T14:53:26;3.37;;;2.80;;
14484;SDS011;7328;50.812;4.422;2022-11-20T14:55:58;6.20;;;4.03;;
14484;SDS011;7328;50.812;4.422;2022-11-20T14:58:30;3.50;;;3.20;;
14484;SDS011;7328;50.812;4.422;2022-11-20T15:03:44;4.13;;;3.73;;
14484;SDS011;7328;50.812;4.422;2022-11-20T15:06:12;4.33;;;3.67;;
14484;SDS011;7328;50.812;4.422;2022-11-20T15:08:38;9.50;;;5.97;;
14484;SDS011;7328;50.812;4.422;2022-11-20T15:11:19;4.07;;;3.67;;
14484;SDS011;7328;50.812;4.422;2022-11-20T15:13:51;3.57;;;2.97;;
14484;SDS011;7328;50.812;4.422;2022-11-20T15:16:18;5.43;;;4.97;;
14484;SDS011;7328;50.812;4.422;2022-11-20T15:18:47;3.97;;;3.67;;
14484;SDS011;7328;50.812;4.422;2022-11-20T15:21:14;4.17;;;3.53;;
14484;SDS011;7328;50.812;4.422;2022-11-20T15:23:43;4.77;;;3.80;;
14484;SDS011;7328;50.812;4.422;2022-11-20T15:26:11;10.33;;;5.63;;
14484;SDS011;7328;50.812;4.422;2022-11-20T15:28:40;4.63;;;4.23;;
14484;SDS011;7328;50.812;4.422;2022-11-20T15:31:14;4.60;;;3.67;;
14484;SDS011;7328;50.812;4.422;2022-11-20T15:33:41;5.87;;;4.57;;
14484;SDS011;7328;50.812;4.422;2022-11-20T15:36:08;6.23;;;4.20;;
14484;SDS011;7328;50.812;4.422;2022-11-20T15:38:34;6.27;;;4.83;;
14484;SDS011;7328;50.812;4.422;2022-11-20T15:41:00;8.23;;;4.23;;
14484;SDS011;7328;50.812;4.422;2022-11-20T15:43:25;7.77;;;4.67;;
14484;SDS011;7328;50.812;4.422;2022-11-20T15:45:53;5.20;;;4.63;;
14484;SDS011;7328;50.812;4.422;2022-11-20T15:48:23;5.63;;;4.63;;
14484;SDS011;7328;50.812;4.422;2022-11-20T15:50:56;8.70;;;5.77;;
14484;SDS011;7328;50.812;4.422;2022-11-20T15:53:30;5.77;;;5.20;;
14484;SDS011;7328;50.812;4.422;2022-11-20T15:55:56;11.70;;;6.47;;
14484;SDS011;7328;50.812;4.422;2022-11-20T15:58:22;8.10;;;4.63;;
14484;SDS011;7328;50.812;4.422;2022-11-20T16:00:49;6.77;;;6.07;;
14484;SDS011;7328;50.812;4.422;2022-11-20T16:03:15;7.43;;;6.23;;
14484;SDS011;7328;50.812;4.422;2022-11-20T16:05:42;11.57;;;5.10;;
14484;SDS011;7328;50.812;4.422;2022-11-20T16:08:08;16.57;;;5.80;;
14484;SDS011;7328;50.812;4.422;2022-11-20T16:10:34;13.73;;;5.40;;
14484;SDS011;7328;50.812;4.422;2022-11-20T16:13:00;8.07;;;4.43;;
14484;SDS011;7328;50.812;4.422;2022-11-20T16:15:46;8.13;;;4.90;;
14484;SDS011;7328;50.812;4.422;2022-11-20T16:18:18;17.30;;;6.00;;
14484;SDS011;7328;50.812;4.422;2022-11-20T16:20:47;5.27;;;4.20;;
14484;SDS011;7328;50.812;4.422;2022-11-20T16:23:17;13.40;;;4.70;;
14484;SDS011;7328;50.812;4.422;2022-11-20T16:25:43;7.73;;;5.63;;
14484;SDS011;7328;50.812;4.422;2022-11-20T16:28:10;14.93;;;6.20;;
14484;SDS011;7328;50.812;4.422;2022-11-20T16:30:36;16.20;;;6.10;;
14484;SDS011;7328;50.812;4.422;2022-11-20T16:33:02;15.13;;;6.90;;
14484;SDS011;7328;50.812;4.422;2022-11-20T16:35:29;15.20;;;6.10;;
14484;SDS011;7328;50.812;4.422;2022-11-20T16:37:56;18.10;;;5.80;;
14484;SDS011;7328;50.812;4.422;2022-11-20T16:40:23;14.00;;;8.43;;
14484;SDS011;7328;50.812;4.422;2022-11-20T16:42:49;15.03;;;5.50;;
14484;SDS011;7328;50.812;4.422;2022-11-20T16:45:15;12.80;;;5.97;;